createdAt,value
2023-03-24T23:12:05.286Z,994.68
2023-03-24T23:13:05.238Z,994.75
2023-03-24T23:14:05.157Z,994.64
2023-03-24T23:15:04.915Z,994.68
2023-03-24T23:16:05.448Z,994.62
2023-03-24T23:16:10.759Z,994.61
2023-03-24T23:17:02.050Z,994.70
2023-03-24T23:18:02.621Z,994.65
2023-03-24T23:19:02.194Z,994.77
2023-03-24T23:20:02.078Z,994.68
2023-03-24T23:21:01.926Z,994.63
2023-03-24T23:22:02.949Z,994.74
2023-03-24T23:23:04.366Z,994.71
2023-03-24T23:24:02.631Z,994.74
2023-03-24T23:25:02.928Z,994.73
2023-03-24T23:26:02.811Z,994.70
2023-03-24T23:27:03.430Z,994.77
2023-03-24T23:28:03.024Z,994.74
2023-03-24T23:29:02.868Z,994.76
2023-03-24T23:30:03.319Z,994.80
2023-03-24T23:31:03.330Z,994.82
2023-03-24T23:32:02.585Z,994.88
2023-03-24T23:33:03.119Z,994.87
2023-03-24T23:34:02.832Z,994.86
2023-03-24T23:35:02.683Z,994.85
2023-03-24T23:36:02.633Z,994.82
2023-03-24T23:37:03.268Z,994.79
2023-03-24T23:38:02.797Z,994.86
2023-03-24T23:39:02.773Z,994.81
2023-03-24T23:40:02.581Z,994.85
2023-03-24T23:41:03.234Z,994.84
2023-03-24T23:42:02.010Z,994.88
2023-03-24T23:43:02.657Z,994.87
2023-03-24T23:44:02.408Z,994.91
2023-03-24T23:45:02.408Z,994.92
2023-03-24T23:46:02.364Z,994.96
2023-03-24T23:47:02.895Z,994.95
2023-03-24T23:48:03.019Z,994.95
2023-03-24T23:49:02.619Z,995.00
2023-03-24T23:50:02.467Z,994.97
2023-03-24T23:51:02.376Z,995.03
2023-03-24T23:52:02.165Z,995.01
2023-03-24T23:53:02.182Z,995.01
2023-03-24T23:54:02.025Z,995.02
2023-03-24T23:55:02.599Z,995.02
2023-03-24T23:56:02.269Z,995.04
2023-03-24T23:57:02.429Z,994.93
2023-03-24T23:58:02.220Z,994.99
2023-03-24T23:59:02.171Z,994.97
